sensor_id;sensor_type;location;lat;lon;timestamp;temperature;humidity
65378;SHT31;51982;51.042;13.806;2022-10-26T00:01:09;12.24;86.85
65378;SHT31;51982;51.042;13.806;2022-10-26T00:03:36;12.18;86.88
65378;SHT31;51982;51.042;13.806;2022-10-26T00:06:04;12.18;86.90
65378;SHT31;51982;51.042;13.806;2022-10-26T00:08:30;12.17;86.95
65378;SHT31;51982;51.042;13.806;2022-10-26T00:10:56;12.12;86.99
65378;SHT31;51982;51.042;13.806;2022-10-26T00:13:21;12.11;86.97
65378;SHT31;51982;51.042;13.806;2022-10-26T00:15:47;12.11;87.02
65378;SHT31;51982;51.042;13.806;2022-10-26T00:18:12;12.05;87.09
65378;SHT31;51982;51.042;13.806;2022-10-26T00:20:37;12.05;87.08
65378;SHT31;51982;51.042;13.806;2022-10-26T00:23:02;12.06;87.13
65378;SHT31;51982;51.042;13.806;2022-10-26T00:25:28;12.01;87.15
65378;SHT31;51982;51.042;13.806;2022-10-26T00:27:53;12.04;87.15
65378;SHT31;51982;51.042;13.806;2022-10-26T00:30:18;12.02;87.16
65378;SHT31;51982;51.042;13.806;2022-10-26T00:32:43;11.98;87.11
65378;SHT31;51982;51.042;13.806;2022-10-26T00:35:09;11.98;87.12
65378;SHT31;51982;51.042;13.806;2022-10-26T00:37:34;11.95;87.17
65378;SHT31;51982;51.042;13.806;2022-10-26T00:39:59;11.94;87.30
65378;SHT31;51982;51.042;13.806;2022-10-26T00:42:24;11.94;87.20
65378;SHT31;51982;51.042;13.806;2022-10-26T00:45:18;11.90;87.04
65378;SHT31;51982;51.042;13.806;2022-10-26T00:47:46;11.90;86.99
65378;SHT31;51982;51.042;13.806;2022-10-26T00:50:23;11.87;86.91
65378;SHT31;51982;51.042;13.806;2022-10-26T00:52:50;11.85;87.01
65378;SHT31;51982;51.042;13.806;2022-10-26T00:55:20;11.81;87.03
65378;SHT31;51982;51.042;13.806;2022-10-26T00:57:49;11.80;87.15
65378;SHT31;51982;51.042;13.806;2022-10-26T01:00:16;11.80;87.25
65378;SHT31;51982;51.042;13.806;2022-10-26T01:02:42;11.80;87.14
65378;SHT31;51982;51.042;13.806;2022-10-26T01:05:08;11.77;87.19
65378;SHT31;51982;51.042;13.806;2022-10-26T01:07:35;11.73;87.24
65378;SHT31;51982;51.042;13.806;2022-10-26T01:10:00;11.75;87.32
65378;SHT31;51982;51.042;13.806;2022-10-26T01:12:26;11.75;87.35
65378;SHT31;51982;51.042;13.806;2022-10-26T01:14:51;11.73;87.34
65378;SHT31;51982;51.042;13.806;2022-10-26T01:17:54;11.73;87.25
65378;SHT31;51982;51.042;13.806;2022-10-26T01:23:25;11.67;87.30
65378;SHT31;51982;51.042;13.806;2022-10-26T01:29:11;11.63;87.28
65378;SHT31;51982;51.042;13.806;2022-10-26T01:31:47;11.59;87.29
65378;SHT31;51982;51.042;13.806;2022-10-26T01:34:24;11.57;87.29
65378;SHT31;51982;51.042;13.806;2022-10-26T01:36:59;11.54;87.38
65378;SHT31;51982;51.042;13.806;2022-10-26T01:39:47;11.53;87.42
65378;SHT31;51982;51.042;13.806;2022-10-26T01:42:15;11.51;87.46
65378;SHT31;51982;51.042;13.806;2022-10-26T01:44:46;11.50;87.39
65378;SHT31;51982;51.042;13.806;2022-10-26T01:47:14;11.47;87.48
65378;SHT31;51982;51.042;13.806;2022-10-26T01:49:44;11.44;87.57
65378;SHT31;51982;51.042;13.806;2022-10-26T01:52:11;11.42;87.75
65378;SHT31;51982;51.042;13.806;2022-10-26T01:54:36;11.43;87.75
65378;SHT31;51982;51.042;13.806;2022-10-26T01:57:04;11.44;87.69
65378;SHT31;51982;51.042;13.806;2022-10-26T02:03:05;11.43;87.64
65378;SHT31;51982;51.042;13.806;2022-10-26T02:15:52;11.33;87.46
65378;SHT31;51982;51.042;13.806;2022-10-26T02:18:28;11.32;87.58
65378;SHT31;51982;51.042;13.806;2022-10-26T02:20:59;11.29;87.64
65378;SHT31;51982;51.042;13.806;2022-10-26T02:23:28;11.29;87.58
65378;SHT31;51982;51.042;13.806;2022-10-26T02:25:58;11.27;87.64
65378;SHT31;51982;51.042;13.806;2022-10-26T02:28:34;11.26;87.58
65378;SHT31;51982;51.042;13.806;2022-10-26T02:31:01;11.20;87.70
65378;SHT31;51982;51.042;13.806;2022-10-26T02:33:30;11.20;87.69
65378;SHT31;51982;51.042;13.806;2022-10-26T02:35:59;11.19;87.72
65378;SHT31;51982;51.042;13.806;2022-10-26T02:38:28;11.20;87.73
65378;SHT31;51982;51.042;13.806;2022-10-26T02:40:55;11.18;87.69
65378;SHT31;51982;51.042;13.806;2022-10-26T02:43:22;11.12;87.80
65378;SHT31;51982;51.042;13.806;2022-10-26T02:45:56;11.06;87.99
65378;SHT31;51982;51.042;13.806;2022-10-26T02:48:23;11.09;88.05
65378;SHT31;51982;51.042;13.806;2022-10-26T02:51:02;11.10;88.07
65378;SHT31;51982;51.042;13.806;2022-10-26T02:53:42;11.08;87.93
65378;SHT31;51982;51.042;13.806;2022-10-26T02:56:16;11.09;87.87
65378;SHT31;51982;51.042;13.806;2022-10-26T02:58:45;11.09;87.82
65378;SHT31;51982;51.042;13.806;2022-10-26T03:01:12;11.10;87.89
65378;SHT31;51982;51.042;13.806;2022-10-26T03:03:37;11.08;87.94
65378;SHT31;51982;51.042;13.806;2022-10-26T03:06:03;11.06;88.06
65378;SHT31;51982;51.042;13.806;2022-10-26T03:08:28;11.08;87.92
65378;SHT31;51982;51.042;13.806;2022-10-26T03:10:53;11.08;87.94
65378;SHT31;51982;51.042;13.806;2022-10-26T03:13:19;11.05;88.03
65378;SHT31;51982;51.042;13.806;2022-10-26T03:15:44;11.06;88.01
65378;SHT31;51982;51.042;13.806;2022-10-26T03:18:09;11.06;87.95
65378;SHT31;51982;51.042;13.806;2022-10-26T03:20:34;11.05;88.05
65378;SHT31;51982;51.042;13.806;2022-10-26T03:23:00;11.02;88.09
65378;SHT31;51982;51.042;13.806;2022-10-26T03:25:25;10.98;88.05
65378;SHT31;51982;51.042;13.806;2022-10-26T03:27:58;10.95;87.97
65378;SHT31;51982;51.042;13.806;2022-10-26T03:30:24;10.95;88.03
65378;SHT31;51982;51.042;13.806;2022-10-26T03:32:49;10.96;88.06
65378;SHT31;51982;51.042;13.806;2022-10-26T03:35:15;10.92;88.05
65378;SHT31;51982;51.042;13.806;2022-10-26T03:37:40;10.93;88.02
65378;SHT31;51982;51.042;13.806;2022-10-26T03:40:06;10.89;88.04
65378;SHT31;51982;51.042;13.806;2022-10-26T03:42:38;10.89;87.92
65378;SHT31;51982;51.042;13.806;2022-10-26T03:45:04;10.86;88.07
65378;SHT31;51982;51.042;13.806;2022-10-26T03:47:30;10.91;88.06
65378;SHT31;51982;51.042;13.806;2022-10-26T03:49:55;10.85;88.10
65378;SHT31;51982;51.042;13.806;2022-10-26T03:52:21;10.85;88.17
65378;SHT31;51982;51.042;13.806;2022-10-26T03:54:48;10.82;88.22
65378;SHT31;51982;51.042;13.806;2022-10-26T03:57:13;10.83;88.18
65378;SHT31;51982;51.042;13.806;2022-10-26T03:59:38;10.82;88.20
65378;SHT31;51982;51.042;13.806;2022-10-26T04:02:04;10.81;88.32
65378;SHT31;51982;51.042;13.806;2022-10-26T04:04:29;10.78;88.25
65378;SHT31;51982;51.042;13.806;2022-10-26T04:06:54;10.79;88.19
65378;SHT31;51982;51.042;13.806;2022-10-26T04:09:19;10.75;88.17
65378;SHT31;51982;51.042;13.806;2022-10-26T04:11:45;10.76;88.17
65378;SHT31;51982;51.042;13.806;2022-10-26T04:14:10;10.75;88.17
65378;SHT31;51982;51.042;13.806;2022-10-26T04:16:35;10.73;88.21
65378;SHT31;51982;51.042;13.806;2022-10-26T04:19:00;10.72;88.24
65378;SHT31;51982;51.042;13.806;2022-10-26T04:21:26;10.71;88.27
65378;SHT31;51982;51.042;13.806;2022-10-26T04:23:51;10.67;88.30
65378;SHT31;51982;51.042;13.806;2022-10-26T04:26:16;10.67;88.30
65378;SHT31;51982;51.042;13.806;2022-10-26T04:28:41;10.69;88.18
65378;SHT31;51982;51.042;13.806;2022-10-26T04:31:07;10.65;88.20
65378;SHT31;51982;51.042;13.806;2022-10-26T04:33:32;10.64;88.24
65378;SHT31;51982;51.042;13.806;2022-10-26T04:35:58;10.64;88.25
65378;SHT31;51982;51.042;13.806;2022-10-26T04:38:25;10.62;88.13
65378;SHT31;51982;51.042;13.806;2022-10-26T04:40:50;10.59;88.13
65378;SHT31;51982;51.042;13.806;2022-10-26T04:43:15;10.59;88.07
65378;SHT31;51982;51.042;13.806;2022-10-26T04:45:41;10.55;88.09
65378;SHT31;51982;51.042;13.806;2022-10-26T04:48:09;10.57;88.11
65378;SHT31;51982;51.042;13.806;2022-10-26T04:50:35;10.57;88.15
65378;SHT31;51982;51.042;13.806;2022-10-26T04:53:00;10.54;88.11
65378;SHT31;51982;51.042;13.806;2022-10-26T04:55:26;10.52;88.14
65378;SHT31;51982;51.042;13.806;2022-10-26T04:57:51;10.48;88.20
65378;SHT31;51982;51.042;13.806;2022-10-26T05:00:16;10.49;88.17
65378;SHT31;51982;51.042;13.806;2022-10-26T05:02:42;10.48;88.09
65378;SHT31;51982;51.042;13.806;2022-10-26T05:05:07;10.47;88.10
65378;SHT31;51982;51.042;13.806;2022-10-26T05:07:32;10.44;88.20
65378;SHT31;51982;51.042;13.806;2022-10-26T05:09:58;10.42;88.15
65378;SHT31;51982;51.042;13.806;2022-10-26T05:12:23;10.40;88.11
65378;SHT31;51982;51.042;13.806;2022-10-26T05:14:48;10.38;88.09
65378;SHT31;51982;51.042;13.806;2022-10-26T05:17:13;10.38;88.07
65378;SHT31;51982;51.042;13.806;2022-10-26T05:19:39;10.34;88.10
65378;SHT31;51982;51.042;13.806;2022-10-26T05:22:04;10.37;88.07
65378;SHT31;51982;51.042;13.806;2022-10-26T05:24:29;10.37;88.05
65378;SHT31;51982;51.042;13.806;2022-10-26T05:26:55;10.34;88.14
65378;SHT31;51982;51.042;13.806;2022-10-26T05:29:20;10.34;88.09
65378;SHT31;51982;51.042;13.806;2022-10-26T05:31:45;10.31;88.16
65378;SHT31;51982;51.042;13.806;2022-10-26T05:34:11;10.30;88.24
65378;SHT31;51982;51.042;13.806;2022-10-26T05:36:36;10.30;88.35
65378;SHT31;51982;51.042;13.806;2022-10-26T05:39:02;10.25;88.40
65378;SHT31;51982;51.042;13.806;2022-10-26T05:41:27;10.25;88.47
65378;SHT31;51982;51.042;13.806;2022-10-26T05:43:52;10.28;88.57
65378;SHT31;51982;51.042;13.806;2022-10-26T05:46:18;10.27;88.50
65378;SHT31;51982;51.042;13.806;2022-10-26T05:48:43;10.25;88.53
65378;SHT31;51982;51.042;13.806;2022-10-26T05:51:08;10.25;88.60
65378;SHT31;51982;51.042;13.806;2022-10-26T05:53:34;10.24;88.56
65378;SHT31;51982;51.042;13.806;2022-10-26T05:56:00;10.22;88.52
65378;SHT31;51982;51.042;13.806;2022-10-26T05:58:25;10.24;88.57
65378;SHT31;51982;51.042;13.806;2022-10-26T06:03:53;10.25;88.45
65378;SHT31;51982;51.042;13.806;2022-10-26T06:06:21;10.30;88.55
65378;SHT31;51982;51.042;13.806;2022-10-26T06:08:47;10.27;88.56
65378;SHT31;51982;51.042;13.806;2022-10-26T06:11:12;10.30;88.55
65378;SHT31;51982;51.042;13.806;2022-10-26T06:13:38;10.28;88.57
65378;SHT31;51982;51.042;13.806;2022-10-26T06:16:10;10.27;88.59
65378;SHT31;51982;51.042;13.806;2022-10-26T06:18:53;10.28;88.69
65378;SHT31;51982;51.042;13.806;2022-10-26T06:21:49;10.31;88.78
65378;SHT31;51982;51.042;13.806;2022-10-26T06:24:30;10.37;89.02
65378;SHT31;51982;51.042;13.806;2022-10-26T06:32:24;10.49;89.10
65378;SHT31;51982;51.042;13.806;2022-10-26T06:34:51;10.55;89.09
65378;SHT31;51982;51.042;13.806;2022-10-26T06:37:20;10.58;89.10
65378;SHT31;51982;51.042;13.806;2022-10-26T06:39:46;10.61;89.05
65378;SHT31;51982;51.042;13.806;2022-10-26T06:42:13;10.62;88.96
65378;SHT31;51982;51.042;13.806;2022-10-26T06:44:39;10.68;89.08
65378;SHT31;51982;51.042;13.806;2022-10-26T06:47:11;10.69;88.99
65378;SHT31;51982;51.042;13.806;2022-10-26T06:52:47;10.81;88.86
65378;SHT31;51982;51.042;13.806;2022-10-26T06:55:14;10.82;89.03
65378;SHT31;51982;51.042;13.806;2022-10-26T06:57:41;10.89;89.03
65378;SHT31;51982;51.042;13.806;2022-10-26T07:02:39;10.89;89.16
65378;SHT31;51982;51.042;13.806;2022-10-26T07:05:04;10.91;89.20
65378;SHT31;51982;51.042;13.806;2022-10-26T07:07:59;10.95;89.28
65378;SHT31;51982;51.042;13.806;2022-10-26T07:10:40;11.02;89.14
65378;SHT31;51982;51.042;13.806;2022-10-26T07:13:08;11.00;89.25
65378;SHT31;51982;51.042;13.806;2022-10-26T07:15:35;11.08;89.38
65378;SHT31;51982;51.042;13.806;2022-10-26T07:18:02;11.12;89.34
65378;SHT31;51982;51.042;13.806;2022-10-26T07:20:29;11.18;89.36
65378;SHT31;51982;51.042;13.806;2022-10-26T07:22:55;11.22;89.45
65378;SHT31;51982;51.042;13.806;2022-10-26T07:25:22;11.26;89.40
65378;SHT31;51982;51.042;13.806;2022-10-26T07:27:47;11.29;89.51
65378;SHT31;51982;51.042;13.806;2022-10-26T07:30:13;11.36;89.52
65378;SHT31;51982;51.042;13.806;2022-10-26T07:32:38;11.42;89.57
65378;SHT31;51982;51.042;13.806;2022-10-26T07:35:04;11.43;89.62
65378;SHT31;51982;51.042;13.806;2022-10-26T07:37:29;11.46;89.58
65378;SHT31;51982;51.042;13.806;2022-10-26T07:39:55;11.49;89.76
65378;SHT31;51982;51.042;13.806;2022-10-26T07:42:20;11.49;89.73
65378;SHT31;51982;51.042;13.806;2022-10-26T07:44:45;11.43;89.93
65378;SHT31;51982;51.042;13.806;2022-10-26T07:47:10;11.44;89.93
65378;SHT31;51982;51.042;13.806;2022-10-26T07:49:36;11.49;90.01
65378;SHT31;51982;51.042;13.806;2022-10-26T07:52:01;11.49;90.08
65378;SHT31;51982;51.042;13.806;2022-10-26T07:54:26;11.47;90.20
65378;SHT31;51982;51.042;13.806;2022-10-26T07:56:52;11.51;90.20
65378;SHT31;51982;51.042;13.806;2022-10-26T07:59:17;11.51;90.30
65378;SHT31;51982;51.042;13.806;2022-10-26T08:01:43;11.57;90.44
65378;SHT31;51982;51.042;13.806;2022-10-26T08:04:08;11.64;90.43
65378;SHT31;51982;51.042;13.806;2022-10-26T08:06:34;11.64;90.62
65378;SHT31;51982;51.042;13.806;2022-10-26T08:08:59;11.67;90.61
65378;SHT31;51982;51.042;13.806;2022-10-26T08:11:25;11.73;90.59
65378;SHT31;51982;51.042;13.806;2022-10-26T08:13:53;11.78;90.53
65378;SHT31;51982;51.042;13.806;2022-10-26T08:16:19;11.81;90.61
65378;SHT31;51982;51.042;13.806;2022-10-26T08:18:47;11.87;90.50
65378;SHT31;51982;51.042;13.806;2022-10-26T08:21:12;11.95;90.55
65378;SHT31;51982;51.042;13.806;2022-10-26T08:23:38;12.05;90.48
65378;SHT31;51982;51.042;13.806;2022-10-26T08:26:07;12.12;90.38
65378;SHT31;51982;51.042;13.806;2022-10-26T08:28:36;12.25;90.29
65378;SHT31;51982;51.042;13.806;2022-10-26T08:31:01;12.35;90.15
65378;SHT31;51982;51.042;13.806;2022-10-26T08:33:26;12.46;89.95
65378;SHT31;51982;51.042;13.806;2022-10-26T08:35:56;12.55;89.79
65378;SHT31;51982;51.042;13.806;2022-10-26T08:38:22;12.67;89.67
65378;SHT31;51982;51.042;13.806;2022-10-26T08:40:47;12.76;89.57
65378;SHT31;51982;51.042;13.806;2022-10-26T08:43:21;12.85;89.44
65378;SHT31;51982;51.042;13.806;2022-10-26T08:46:10;12.89;89.42
65378;SHT31;51982;51.042;13.806;2022-10-26T08:48:39;12.93;89.41
65378;SHT31;51982;51.042;13.806;2022-10-26T08:51:22;12.99;89.38
65378;SHT31;51982;51.042;13.806;2022-10-26T08:54:26;13.04;89.34
65378;SHT31;51982;51.042;13.806;2022-10-26T08:56:46;13.08;89.36
65378;SHT31;51982;51.042;13.806;2022-10-26T09:01:54;13.16;89.39
65378;SHT31;51982;51.042;13.806;2022-10-26T09:04:25;13.16;89.31
65378;SHT31;51982;51.042;13.806;2022-10-26T09:12:46;13.30;89.56
65378;SHT31;51982;51.042;13.806;2022-10-26T09:15:17;13.38;89.84
65378;SHT31;51982;51.042;13.806;2022-10-26T09:25:44;13.51;89.50
65378;SHT31;51982;51.042;13.806;2022-10-26T09:28:16;13.57;89.46
65378;SHT31;51982;51.042;13.806;2022-10-26T09:30:45;13.59;89.53
65378;SHT31;51982;51.042;13.806;2022-10-26T09:33:16;13.62;89.57
65378;SHT31;51982;51.042;13.806;2022-10-26T09:35:49;13.62;89.46
65378;SHT31;51982;51.042;13.806;2022-10-26T09:38:23;13.62;89.34
65378;SHT31;51982;51.042;13.806;2022-10-26T09:41:04;13.68;89.33
65378;SHT31;51982;51.042;13.806;2022-10-26T09:46:15;13.72;89.50
65378;SHT31;51982;51.042;13.806;2022-10-26T09:48:45;13.72;89.96
65378;SHT31;51982;51.042;13.806;2022-10-26T09:51:15;13.78;89.66
65378;SHT31;51982;51.042;13.806;2022-10-26T09:53:40;13.82;89.61
65378;SHT31;51982;51.042;13.806;2022-10-26T09:56:10;13.86;89.70
65378;SHT31;51982;51.042;13.806;2022-10-26T09:58:52;13.88;89.60
65378;SHT31;51982;51.042;13.806;2022-10-26T10:06:37;14.06;89.35
65378;SHT31;51982;51.042;13.806;2022-10-26T10:11:38;14.13;89.27
65378;SHT31;51982;51.042;13.806;2022-10-26T10:14:07;14.19;89.31
65378;SHT31;51982;51.042;13.806;2022-10-26T10:16:33;14.23;89.33
65378;SHT31;51982;51.042;13.806;2022-10-26T10:18:59;14.26;89.31
65378;SHT31;51982;51.042;13.806;2022-10-26T10:21:47;14.32;89.01
65378;SHT31;51982;51.042;13.806;2022-10-26T10:24:32;14.40;89.05
65378;SHT31;51982;51.042;13.806;2022-10-26T10:27:02;14.40;88.95
65378;SHT31;51982;51.042;13.806;2022-10-26T10:29:30;14.44;88.86
65378;SHT31;51982;51.042;13.806;2022-10-26T10:31:58;14.47;88.96
65378;SHT31;51982;51.042;13.806;2022-10-26T10:34:24;14.50;88.90
65378;SHT31;51982;51.042;13.806;2022-10-26T10:36:49;14.59;88.63
65378;SHT31;51982;51.042;13.806;2022-10-26T10:39:39;14.64;88.36
65378;SHT31;51982;51.042;13.806;2022-10-26T10:42:22;14.71;88.28
65378;SHT31;51982;51.042;13.806;2022-10-26T10:44:53;14.77;88.13
65378;SHT31;51982;51.042;13.806;2022-10-26T10:47:24;14.85;88.02
65378;SHT31;51982;51.042;13.806;2022-10-26T10:52:38;15.03;87.40
65378;SHT31;51982;51.042;13.806;2022-10-26T10:58:03;15.11;87.65
65378;SHT31;51982;51.042;13.806;2022-10-26T11:00:36;15.20;87.27
65378;SHT31;51982;51.042;13.806;2022-10-26T11:03:18;15.25;86.79
65378;SHT31;51982;51.042;13.806;2022-10-26T11:09:26;15.38;86.80
65378;SHT31;51982;51.042;13.806;2022-10-26T11:11:53;15.48;86.17
65378;SHT31;51982;51.042;13.806;2022-10-26T11:14:24;15.56;86.14
65378;SHT31;51982;51.042;13.806;2022-10-26T11:17:01;15.61;85.84
65378;SHT31;51982;51.042;13.806;2022-10-26T11:19:33;15.66;85.82
65378;SHT31;51982;51.042;13.806;2022-10-26T11:22:01;15.70;85.75
65378;SHT31;51982;51.042;13.806;2022-10-26T11:24:55;15.83;85.07
65378;SHT31;51982;51.042;13.806;2022-10-26T11:27:47;15.86;84.95
65378;SHT31;51982;51.042;13.806;2022-10-26T11:30:18;15.96;84.79
65378;SHT31;51982;51.042;13.806;2022-10-26T11:33:00;16.09;84.29
65378;SHT31;51982;51.042;13.806;2022-10-26T11:35:30;16.14;84.26
65378;SHT31;51982;51.042;13.806;2022-10-26T11:38:19;16.26;83.36
65378;SHT31;51982;51.042;13.806;2022-10-26T11:40:54;16.28;84.02
65378;SHT31;51982;51.042;13.806;2022-10-26T11:46:20;16.36;84.21
65378;SHT31;51982;51.042;13.806;2022-10-26T11:49:09;16.38;83.39
65378;SHT31;51982;51.042;13.806;2022-10-26T11:51:57;16.38;83.47
65378;SHT31;51982;51.042;13.806;2022-10-26T11:54:39;16.43;83.57
65378;SHT31;51982;51.042;13.806;2022-10-26T11:57:09;16.41;83.70
65378;SHT31;51982;51.042;13.806;2022-10-26T11:59:42;16.46;83.71
65378;SHT31;51982;51.042;13.806;2022-10-26T12:02:13;16.43;83.63
65378;SHT31;51982;51.042;13.806;2022-10-26T12:04:41;16.44;83.63
65378;SHT31;51982;51.042;13.806;2022-10-26T12:07:13;16.46;83.75
65378;SHT31;51982;51.042;13.806;2022-10-26T12:09:42;16.47;83.70
65378;SHT31;51982;51.042;13.806;2022-10-26T12:12:16;16.54;83.51
65378;SHT31;51982;51.042;13.806;2022-10-26T12:14:51;16.58;83.52
65378;SHT31;51982;51.042;13.806;2022-10-26T12:17:30;16.64;83.43
65378;SHT31;51982;51.042;13.806;2022-10-26T12:20:30;16.67;83.01
65378;SHT31;51982;51.042;13.806;2022-10-26T12:23:02;16.69;83.26
65378;SHT31;51982;51.042;13.806;2022-10-26T12:25:28;16.79;82.80
65378;SHT31;51982;51.042;13.806;2022-10-26T12:27:55;16.88;82.52
65378;SHT31;51982;51.042;13.806;2022-10-26T12:38:00;16.91;83.14
65378;SHT31;51982;51.042;13.806;2022-10-26T12:45:37;16.89;81.91
65378;SHT31;51982;51.042;13.806;2022-10-26T12:48:03;16.84;81.88
65378;SHT31;51982;51.042;13.806;2022-10-26T12:50:29;16.88;81.90
65378;SHT31;51982;51.042;13.806;2022-10-26T12:53:05;16.84;81.67
65378;SHT31;51982;51.042;13.806;2022-10-26T12:58:29;16.81;81.68
65378;SHT31;51982;51.042;13.806;2022-10-26T13:03:47;16.79;81.57
65378;SHT31;51982;51.042;13.806;2022-10-26T13:06:39;16.79;81.72
65378;SHT31;51982;51.042;13.806;2022-10-26T13:09:16;16.77;82.02
65378;SHT31;51982;51.042;13.806;2022-10-26T13:11:49;16.77;81.95
65378;SHT31;51982;51.042;13.806;2022-10-26T13:14:25;16.75;81.79
65378;SHT31;51982;51.042;13.806;2022-10-26T13:16:53;16.74;81.72
65378;SHT31;51982;51.042;13.806;2022-10-26T13:19:48;16.74;82.29
65378;SHT31;51982;51.042;13.806;2022-10-26T13:22:19;16.74;82.51
65378;SHT31;51982;51.042;13.806;2022-10-26T13:24:52;16.65;82.83
65378;SHT31;51982;51.042;13.806;2022-10-26T13:32:27;16.65;83.39
65378;SHT31;51982;51.042;13.806;2022-10-26T13:34:54;16.67;83.38
65378;SHT31;51982;51.042;13.806;2022-10-26T13:37:26;16.69;83.44
65378;SHT31;51982;51.042;13.806;2022-10-26T13:39:53;16.74;83.40
65378;SHT31;51982;51.042;13.806;2022-10-26T13:42:25;16.77;83.12
65378;SHT31;51982;51.042;13.806;2022-10-26T13:47:27;16.74;83.34
65378;SHT31;51982;51.042;13.806;2022-10-26T13:49:55;16.75;83.39
65378;SHT31;51982;51.042;13.806;2022-10-26T13:52:30;16.78;83.47
65378;SHT31;51982;51.042;13.806;2022-10-26T13:55:01;16.74;83.55
65378;SHT31;51982;51.042;13.806;2022-10-26T13:57:41;16.74;83.59
65378;SHT31;51982;51.042;13.806;2022-10-26T14:00:18;16.72;83.68
65378;SHT31;51982;51.042;13.806;2022-10-26T14:02:44;16.71;83.64
65378;SHT31;51982;51.042;13.806;2022-10-26T14:05:13;16.72;83.60
65378;SHT31;51982;51.042;13.806;2022-10-26T14:07:51;16.68;83.61
65378;SHT31;51982;51.042;13.806;2022-10-26T14:10:51;16.69;83.46
65378;SHT31;51982;51.042;13.806;2022-10-26T14:13:21;16.74;83.55
65378;SHT31;51982;51.042;13.806;2022-10-26T14:15:47;16.75;83.50
65378;SHT31;51982;51.042;13.806;2022-10-26T14:18:22;16.74;83.22
65378;SHT31;51982;51.042;13.806;2022-10-26T14:21:01;16.78;83.26
65378;SHT31;51982;51.042;13.806;2022-10-26T14:26:18;16.77;83.17
65378;SHT31;51982;51.042;13.806;2022-10-26T14:28:47;16.74;83.36
65378;SHT31;51982;51.042;13.806;2022-10-26T14:31:23;16.69;83.40
65378;SHT31;51982;51.042;13.806;2022-10-26T14:33:49;16.74;83.53
65378;SHT31;51982;51.042;13.806;2022-10-26T14:36:15;16.71;83.52
65378;SHT31;51982;51.042;13.806;2022-10-26T14:38:43;16.75;83.52
65378;SHT31;51982;51.042;13.806;2022-10-26T14:41:10;16.75;83.34
65378;SHT31;51982;51.042;13.806;2022-10-26T14:43:37;16.74;83.23
65378;SHT31;51982;51.042;13.806;2022-10-26T14:46:03;16.74;83.15
65378;SHT31;51982;51.042;13.806;2022-10-26T14:48:30;16.71;83.22
65378;SHT31;51982;51.042;13.806;2022-10-26T14:50:57;16.68;83.38
65378;SHT31;51982;51.042;13.806;2022-10-26T14:53:29;16.65;83.36
65378;SHT31;51982;51.042;13.806;2022-10-26T14:55:56;16.65;83.45
65378;SHT31;51982;51.042;13.806;2022-10-26T14:58:29;16.68;83.29
65378;SHT31;51982;51.042;13.806;2022-10-26T15:03:57;16.72;83.38
65378;SHT31;51982;51.042;13.806;2022-10-26T15:08:59;16.74;83.09
65378;SHT31;51982;51.042;13.806;2022-10-26T15:11:26;16.77;83.11
65378;SHT31;51982;51.042;13.806;2022-10-26T15:13:54;16.78;83.16
65378;SHT31;51982;51.042;13.806;2022-10-26T15:16:23;16.79;83.04
65378;SHT31;51982;51.042;13.806;2022-10-26T15:18:55;16.75;83.17
65378;SHT31;51982;51.042;13.806;2022-10-26T15:21:37;16.74;83.28
65378;SHT31;51982;51.042;13.806;2022-10-26T15:24:27;16.69;82.78
65378;SHT31;51982;51.042;13.806;2022-10-26T15:26:53;16.68;83.16
65378;SHT31;51982;51.042;13.806;2022-10-26T15:29:42;16.65;83.04
65378;SHT31;51982;51.042;13.806;2022-10-26T15:32:31;16.61;82.97
65378;SHT31;51982;51.042;13.806;2022-10-26T15:35:27;16.58;82.97
65378;SHT31;51982;51.042;13.806;2022-10-26T15:37:53;16.58;83.20
65378;SHT31;51982;51.042;13.806;2022-10-26T15:40:19;16.53;83.09
65378;SHT31;51982;51.042;13.806;2022-10-26T15:42:53;16.48;83.07
65378;SHT31;51982;51.042;13.806;2022-10-26T15:45:21;16.44;83.18
65378;SHT31;51982;51.042;13.806;2022-10-26T15:47:48;16.41;83.21
65378;SHT31;51982;51.042;13.806;2022-10-26T15:50:15;16.36;83.27
65378;SHT31;51982;51.042;13.806;2022-10-26T15:52:42;16.34;83.29
65378;SHT31;51982;51.042;13.806;2022-10-26T15:55:08;16.28;83.29
65378;SHT31;51982;51.042;13.806;2022-10-26T15:57:34;16.28;83.21
65378;SHT31;51982;51.042;13.806;2022-10-26T15:59:59;16.28;83.10
65378;SHT31;51982;51.042;13.806;2022-10-26T16:02:26;16.27;83.04
65378;SHT31;51982;51.042;13.806;2022-10-26T16:04:51;16.27;83.03
65378;SHT31;51982;51.042;13.806;2022-10-26T16:07:16;16.23;83.05
65378;SHT31;51982;51.042;13.806;2022-10-26T16:09:42;16.23;83.08
65378;SHT31;51982;51.042;13.806;2022-10-26T16:12:12;16.18;83.08
65378;SHT31;51982;51.042;13.806;2022-10-26T16:14:38;16.17;83.03
65378;SHT31;51982;51.042;13.806;2022-10-26T16:17:04;16.17;83.03
65378;SHT31;51982;51.042;13.806;2022-10-26T16:19:30;16.18;82.99
65378;SHT31;51982;51.042;13.806;2022-10-26T16:21:55;16.17;82.98
65378;SHT31;51982;51.042;13.806;2022-10-26T16:24:21;16.18;82.95
65378;SHT31;51982;51.042;13.806;2022-10-26T16:26:46;16.14;83.06
65378;SHT31;51982;51.042;13.806;2022-10-26T16:29:12;16.13;83.03
65378;SHT31;51982;51.042;13.806;2022-10-26T16:31:37;16.13;83.07
65378;SHT31;51982;51.042;13.806;2022-10-26T16:34:03;16.10;83.07
65378;SHT31;51982;51.042;13.806;2022-10-26T16:36:28;16.13;83.03
65378;SHT31;51982;51.042;13.806;2022-10-26T16:38:53;16.13;83.05
65378;SHT31;51982;51.042;13.806;2022-10-26T16:41:19;16.13;82.88
65378;SHT31;51982;51.042;13.806;2022-10-26T16:43:44;16.13;82.87
65378;SHT31;51982;51.042;13.806;2022-10-26T16:46:15;16.12;82.95
65378;SHT31;51982;51.042;13.806;2022-10-26T16:48:42;16.10;82.89
65378;SHT31;51982;51.042;13.806;2022-10-26T16:51:09;16.13;82.87
65378;SHT31;51982;51.042;13.806;2022-10-26T16:53:35;16.10;82.89
65378;SHT31;51982;51.042;13.806;2022-10-26T16:56:04;16.07;82.83
65378;SHT31;51982;51.042;13.806;2022-10-26T16:58:30;16.09;82.72
65378;SHT31;51982;51.042;13.806;2022-10-26T17:00:56;16.09;82.72
65378;SHT31;51982;51.042;13.806;2022-10-26T17:03:21;16.06;82.70
65378;SHT31;51982;51.042;13.806;2022-10-26T17:05:46;16.06;82.66
65378;SHT31;51982;51.042;13.806;2022-10-26T17:08:11;16.05;82.69
65378;SHT31;51982;51.042;13.806;2022-10-26T17:10:37;16.05;82.62
65378;SHT31;51982;51.042;13.806;2022-10-26T17:13:02;16.06;82.60
65378;SHT31;51982;51.042;13.806;2022-10-26T17:15:28;16.05;82.62
65378;SHT31;51982;51.042;13.806;2022-10-26T17:17:53;16.02;82.61